Perch River, New York
Current Conditions -  °F | °C
As of 9:56 PM on Monday 20 Oct 2014 (Local Time) from KART Reporting Station
Overcast Overcast  
Wind Chill: 11°   Ceiling: 4800
Heat Index: 11°   Visibility: 10mi
Dew Point:   Wind: 3mph
Humidity: 63%   Direction: 140°SE
Pressure: 29.86"   Gusts: NA
Location:  44.0116°N, 76.0789°W
Report Text: KART 210156Z AUTO 14003KT 10SM OVC048 11/04 A2986 RMK AO2 RAE00 SLP113 P0000 T01110044
Loading
Personal Weather Stations






























Interactive Weather Map
Tropical Storm Tracking
New forecast layout! Learn more

10-Day Weather Forecast

Advertisements
Track Severe Weather on mobile